sensor_id;sensor_type;location;lat;lon;timestamp;pressure;altitude;pressure_sealevel;temperature;humidity
34931;BME280;21134;49.646;8.560;2022-09-17T00:00:56;100270.44;;;9.56;93.50
34931;BME280;21134;49.646;8.560;2022-09-17T00:03:24;100269.59;;;9.52;93.73
34931;BME280;21134;49.646;8.560;2022-09-17T00:05:59;100279.81;;;9.49;93.12
34931;BME280;21134;49.646;8.560;2022-09-17T00:08:26;100270.47;;;9.51;93.51
34931;BME280;21134;49.646;8.560;2022-09-17T00:10:52;100272.16;;;9.51;93.72
34931;BME280;21134;49.646;8.560;2022-09-17T00:13:19;100273.88;;;9.46;92.97
34931;BME280;21134;49.646;8.560;2022-09-17T00:15:46;100272.16;;;9.48;92.71
34931;BME280;21134;49.646;8.560;2022-09-17T00:18:13;100276.41;;;9.44;92.65
34931;BME280;21134;49.646;8.560;2022-09-17T00:20:41;100272.16;;;9.39;92.48
34931;BME280;21134;49.646;8.560;2022-09-17T00:23:11;100278.97;;;9.37;92.63
34931;BME280;21134;49.646;8.560;2022-09-17T00:25:40;100267.88;;;9.38;92.23
34931;BME280;21134;49.646;8.560;2022-09-17T00:28:07;100267.03;;;9.31;92.60
34931;BME280;21134;49.646;8.560;2022-09-17T00:30:34;100272.16;;;9.23;92.84
34931;BME280;21134;49.646;8.560;2022-09-17T00:33:01;100275.56;;;9.24;92.64
34931;BME280;21134;49.646;8.560;2022-09-17T00:35:27;100272.13;;;9.19;92.66
34931;BME280;21134;49.646;8.560;2022-09-17T00:37:54;100274.69;;;9.11;93.83
34931;BME280;21134;49.646;8.560;2022-09-17T00:40:21;100272.13;;;9.14;93.20
34931;BME280;21134;49.646;8.560;2022-09-17T00:42:48;100279.81;;;9.20;93.40
34931;BME280;21134;49.646;8.560;2022-09-17T00:45:17;100280.66;;;9.13;91.77
34931;BME280;21134;49.646;8.560;2022-09-17T00:47:46;100278.09;;;9.12;92.44
34931;BME280;21134;49.646;8.560;2022-09-17T00:50:20;100282.31;;;9.05;92.71
34931;BME280;21134;49.646;8.560;2022-09-17T00:52:49;100280.63;;;9.04;92.15
34931;BME280;21134;49.646;8.560;2022-09-17T00:55:20;100287.41;;;8.94;92.43
34931;BME280;21134;49.646;8.560;2022-09-17T00:57:51;100282.28;;;8.87;92.76
34931;BME280;21134;49.646;8.560;2022-09-17T01:00:19;100282.25;;;8.77;92.66
34931;BME280;21134;49.646;8.560;2022-09-17T01:02:47;100288.25;;;8.81;93.25
34931;BME280;21134;49.646;8.560;2022-09-17T01:05:15;100283.13;;;8.79;92.73
34931;BME280;21134;49.646;8.560;2022-09-17T01:07:59;100293.31;;;8.72;92.89
34931;BME280;21134;49.646;8.560;2022-09-17T01:10:59;100281.41;;;8.75;92.45
34931;BME280;21134;49.646;8.560;2022-09-17T01:13:36;100290.75;;;8.69;93.50
34931;BME280;21134;49.646;8.560;2022-09-17T01:16:15;100278.84;;;8.72;93.85
34931;BME280;21134;49.646;8.560;2022-09-17T01:18:55;100290.75;;;8.73;93.18
34931;BME280;21134;49.646;8.560;2022-09-17T01:21:45;100287.38;;;8.76;92.50
34931;BME280;21134;49.646;8.560;2022-09-17T01:24:49;100294.19;;;8.78;92.24
34931;BME280;21134;49.646;8.560;2022-09-17T01:31:00;100311.97;;;8.61;93.16
34931;BME280;21134;49.646;8.560;2022-09-17T01:33:37;100298.34;;;8.56;94.08
34931;BME280;21134;49.646;8.560;2022-09-17T01:36:13;100311.97;;;8.65;92.87
34931;BME280;21134;49.646;8.560;2022-09-17T01:38:48;100308.59;;;8.66;92.99
34931;BME280;21134;49.646;8.560;2022-09-17T01:41:21;100307.72;;;8.62;91.59
34931;BME280;21134;49.646;8.560;2022-09-17T01:43:55;100315.34;;;8.60;93.29
34931;BME280;21134;49.646;8.560;2022-09-17T01:46:29;100314.50;;;8.60;93.96
34931;BME280;21134;49.646;8.560;2022-09-17T01:48:59;100314.53;;;8.63;92.64
34931;BME280;21134;49.646;8.560;2022-09-17T01:51:29;100311.97;;;8.65;92.87
34931;BME280;21134;49.646;8.560;2022-09-17T01:54:00;100311.13;;;8.66;91.85
34931;BME280;21134;49.646;8.560;2022-09-17T01:56:32;100312.84;;;8.62;92.08
34931;BME280;21134;49.646;8.560;2022-09-17T01:59:04;100312.81;;;8.59;92.07
34931;BME280;21134;49.646;8.560;2022-09-17T02:01:34;100309.34;;;8.48;93.15
34931;BME280;21134;49.646;8.560;2022-09-17T02:04:06;100311.91;;;8.46;92.75
34931;BME280;21134;49.646;8.560;2022-09-17T02:06:36;100309.34;;;8.48;93.11
34931;BME280;21134;49.646;8.560;2022-09-17T02:09:06;100308.50;;;8.44;93.04
34931;BME280;21134;49.646;8.560;2022-09-17T02:11:37;100311.03;;;8.41;93.26
34931;BME280;21134;49.646;8.560;2022-09-17T02:14:07;100311.91;;;8.43;93.26
34931;BME280;21134;49.646;8.560;2022-09-17T02:16:42;100315.25;;;8.39;93.93
34931;BME280;21134;49.646;8.560;2022-09-17T02:19:14;100311.88;;;8.42;94.17
34931;BME280;21134;49.646;8.560;2022-09-17T02:21:46;100317.81;;;8.42;93.24
34931;BME280;21134;49.646;8.560;2022-09-17T02:24:18;100317.75;;;8.34;93.51
34931;BME280;21134;49.646;8.560;2022-09-17T02:26:50;100320.34;;;8.36;93.34
34931;BME280;21134;49.646;8.560;2022-09-17T02:29:23;100326.34;;;8.43;93.32
34931;BME280;21134;49.646;8.560;2022-09-17T02:31:53;100311.91;;;8.43;93.15
34931;BME280;21134;49.646;8.560;2022-09-17T02:34:19;100316.13;;;8.41;92.78
34931;BME280;21134;49.646;8.560;2022-09-17T02:36:46;100319.47;;;8.37;93.40
34931;BME280;21134;49.646;8.560;2022-09-17T02:39:13;100317.81;;;8.39;92.94
34931;BME280;21134;49.646;8.560;2022-09-17T02:41:45;100312.75;;;8.44;92.11
34931;BME280;21134;49.646;8.560;2022-09-17T02:44:23;100305.06;;;8.42;92.82
34931;BME280;21134;49.646;8.560;2022-09-17T02:47:11;100305.06;;;8.42;91.28
34931;BME280;21134;49.646;8.560;2022-09-17T02:50:01;100303.41;;;8.47;91.68
34931;BME280;21134;49.646;8.560;2022-09-17T02:52:39;100306.78;;;8.42;92.25
34931;BME280;21134;49.646;8.560;2022-09-17T02:55:17;100313.59;;;8.43;93.26
34931;BME280;21134;49.646;8.560;2022-09-17T02:57:49;100312.72;;;8.45;92.97
34931;BME280;21134;49.646;8.560;2022-09-17T03:00:20;100311.09;;;8.56;92.87
34931;BME280;21134;49.646;8.560;2022-09-17T03:02:52;100306.88;;;8.61;94.11
34931;BME280;21134;49.646;8.560;2022-09-17T03:05:22;100306.03;;;8.67;93.43
34931;BME280;21134;49.646;8.560;2022-09-17T03:07:50;100306.03;;;8.67;94.19
34931;BME280;21134;49.646;8.560;2022-09-17T03:10:17;100308.59;;;8.67;95.17
34931;BME280;21134;49.646;8.560;2022-09-17T03:12:44;100306.94;;;8.78;93.80
34931;BME280;21134;49.646;8.560;2022-09-17T03:15:10;100311.19;;;8.82;94.69
34931;BME280;21134;49.646;8.560;2022-09-17T03:17:37;100300.13;;;8.83;94.69
34931;BME280;21134;49.646;8.560;2022-09-17T03:20:05;100298.44;;;8.89;93.96
34931;BME280;21134;49.646;8.560;2022-09-17T03:22:32;100298.47;;;8.87;94.04
34931;BME280;21134;49.646;8.560;2022-09-17T03:24:59;100296.78;;;8.91;95.07
34931;BME280;21134;49.646;8.560;2022-09-17T03:27:26;100292.50;;;8.93;93.95
34931;BME280;21134;49.646;8.560;2022-09-17T03:29:52;100299.34;;;8.94;93.81
34931;BME280;21134;49.646;8.560;2022-09-17T03:32:19;100293.34;;;8.90;94.55
34931;BME280;21134;49.646;8.560;2022-09-17T03:34:45;100293.38;;;8.95;94.99
34931;BME280;21134;49.646;8.560;2022-09-17T03:37:13;100295.09;;;9.00;94.82
34931;BME280;21134;49.646;8.560;2022-09-17T03:39:40;100297.66;;;9.03;94.57
34931;BME280;21134;49.646;8.560;2022-09-17T03:42:06;100299.34;;;9.09;95.74
34931;BME280;21134;49.646;8.560;2022-09-17T03:44:33;100302.75;;;9.14;95.47
34931;BME280;21134;49.646;8.560;2022-09-17T03:46:59;100309.59;;;9.23;95.69
34931;BME280;21134;49.646;8.560;2022-09-17T03:49:26;100307.06;;;9.26;95.43
34931;BME280;21134;49.646;8.560;2022-09-17T03:51:52;100309.59;;;9.34;95.68
34931;BME280;21134;49.646;8.560;2022-09-17T03:54:20;100305.34;;;9.34;95.79
34931;BME280;21134;49.646;8.560;2022-09-17T03:56:47;100310.47;;;9.45;95.31
34931;BME280;21134;49.646;8.560;2022-09-17T03:59:13;100317.28;;;9.46;94.98
34931;BME280;21134;49.646;8.560;2022-09-17T04:01:40;100318.97;;;9.45;95.71
34931;BME280;21134;49.646;8.560;2022-09-17T04:04:06;100319.00;;;9.51;95.57
34931;BME280;21134;49.646;8.560;2022-09-17T04:06:33;100329.19;;;9.56;95.73
34931;BME280;21134;49.646;8.560;2022-09-17T04:09:00;100328.34;;;9.60;95.78
34931;BME280;21134;49.646;8.560;2022-09-17T04:11:30;100324.94;;;9.69;95.70
34931;BME280;21134;49.646;8.560;2022-09-17T04:13:56;100328.34;;;9.72;95.51
34931;BME280;21134;49.646;8.560;2022-09-17T04:16:23;100325.81;;;9.80;95.78
34931;BME280;21134;49.646;8.560;2022-09-17T04:18:49;100328.34;;;9.83;95.62
34931;BME280;21134;49.646;8.560;2022-09-17T04:21:16;100328.34;;;9.85;95.33
34931;BME280;21134;49.646;8.560;2022-09-17T04:23:42;100331.75;;;9.88;95.34
34931;BME280;21134;49.646;8.560;2022-09-17T04:26:09;100324.94;;;9.90;94.59
34931;BME280;21134;49.646;8.560;2022-09-17T04:28:36;100329.19;;;9.93;94.27
34931;BME280;21134;49.646;8.560;2022-09-17T04:31:03;100323.22;;;9.95;94.50
34931;BME280;21134;49.646;8.560;2022-09-17T04:33:29;100324.06;;;9.97;94.64
34931;BME280;21134;49.646;8.560;2022-09-17T04:35:56;100324.06;;;10.00;94.91
34931;BME280;21134;49.646;8.560;2022-09-17T04:38:22;100332.56;;;10.01;94.08
34931;BME280;21134;49.646;8.560;2022-09-17T04:40:49;100338.53;;;10.01;93.88
34931;BME280;21134;49.646;8.560;2022-09-17T04:43:16;100335.13;;;10.04;94.20
34931;BME280;21134;49.646;8.560;2022-09-17T04:45:45;100340.25;;;10.09;94.23
34931;BME280;21134;49.646;8.560;2022-09-17T04:48:12;100353.88;;;10.14;94.22
34931;BME280;21134;49.646;8.560;2022-09-17T04:50:38;100345.38;;;10.12;94.39
34931;BME280;21134;49.646;8.560;2022-09-17T04:53:05;100342.81;;;10.15;93.69
34931;BME280;21134;49.646;8.560;2022-09-17T04:55:31;100344.47;;;10.20;94.29
34931;BME280;21134;49.646;8.560;2022-09-17T04:57:58;100348.75;;;10.18;94.67
34931;BME280;21134;49.646;8.560;2022-09-17T05:00:24;100347.06;;;10.19;94.97
34931;BME280;21134;49.646;8.560;2022-09-17T05:02:53;100353.03;;;10.15;95.78
34931;BME280;21134;49.646;8.560;2022-09-17T05:05:21;100355.59;;;10.18;95.37
34931;BME280;21134;49.646;8.560;2022-09-17T05:07:48;100361.53;;;10.11;95.75
34931;BME280;21134;49.646;8.560;2022-09-17T05:10:16;100361.56;;;10.12;95.99
34931;BME280;21134;49.646;8.560;2022-09-17T05:12:46;100364.09;;;10.18;96.80
34931;BME280;21134;49.646;8.560;2022-09-17T05:15:13;100360.69;;;10.19;97.75
34931;BME280;21134;49.646;8.560;2022-09-17T05:17:40;100364.09;;;10.21;98.00
34931;BME280;21134;49.646;8.560;2022-09-17T05:20:08;100368.34;;;10.22;98.42
34931;BME280;21134;49.646;8.560;2022-09-17T05:22:40;100361.56;;;10.26;97.92
34931;BME280;21134;49.646;8.560;2022-09-17T05:25:07;100357.28;;;10.27;98.14
34931;BME280;21134;49.646;8.560;2022-09-17T05:27:33;100357.28;;;10.27;98.20
34931;BME280;21134;49.646;8.560;2022-09-17T05:30:00;100364.13;;;10.28;98.52
34931;BME280;21134;49.646;8.560;2022-09-17T05:32:26;100359.81;;;10.25;98.56
34931;BME280;21134;49.646;8.560;2022-09-17T05:34:53;100370.09;;;10.28;99.70
34931;BME280;21134;49.646;8.560;2022-09-17T05:37:21;100367.50;;;10.33;99.76
34931;BME280;21134;49.646;8.560;2022-09-17T05:39:48;100376.88;;;10.35;99.63
34931;BME280;21134;49.646;8.560;2022-09-17T05:42:14;100372.63;;;10.36;99.02
34931;BME280;21134;49.646;8.560;2022-09-17T05:44:41;100381.16;;;10.38;99.84
34931;BME280;21134;49.646;8.560;2022-09-17T05:47:07;100377.72;;;10.39;99.22
34931;BME280;21134;49.646;8.560;2022-09-17T05:49:34;100383.69;;;10.42;100.00
34931;BME280;21134;49.646;8.560;2022-09-17T05:52:00;100381.97;;;10.44;100.00
34931;BME280;21134;49.646;8.560;2022-09-17T05:54:29;100385.41;;;10.46;100.00
34931;BME280;21134;49.646;8.560;2022-09-17T05:56:55;100399.03;;;10.53;99.94
34931;BME280;21134;49.646;8.560;2022-09-17T05:59:22;100400.72;;;10.60;99.85
34931;BME280;21134;49.646;8.560;2022-09-17T06:01:48;100396.44;;;10.59;99.16
34931;BME280;21134;49.646;8.560;2022-09-17T06:04:16;100399.84;;;10.66;99.40
34931;BME280;21134;49.646;8.560;2022-09-17T06:06:43;100404.09;;;10.67;97.75
34931;BME280;21134;49.646;8.560;2022-09-17T06:09:09;100401.53;;;10.62;98.70
34931;BME280;21134;49.646;8.560;2022-09-17T06:11:37;100396.41;;;10.68;98.24
34931;BME280;21134;49.646;8.560;2022-09-17T06:14:04;100398.97;;;10.70;99.54
34931;BME280;21134;49.646;8.560;2022-09-17T06:16:30;100399.81;;;10.77;99.12
34931;BME280;21134;49.646;8.560;2022-09-17T06:18:57;100401.50;;;10.76;98.36
34931;BME280;21134;49.646;8.560;2022-09-17T06:21:23;100398.09;;;10.77;98.39
34931;BME280;21134;49.646;8.560;2022-09-17T06:23:50;100395.53;;;10.79;98.28
34931;BME280;21134;49.646;8.560;2022-09-17T06:26:17;100396.38;;;10.81;98.46
34931;BME280;21134;49.646;8.560;2022-09-17T06:28:45;100404.03;;;10.88;99.11
34931;BME280;21134;49.646;8.560;2022-09-17T06:31:12;100404.88;;;10.89;98.78
34931;BME280;21134;49.646;8.560;2022-09-17T06:33:38;100402.31;;;10.89;98.26
34931;BME280;21134;49.646;8.560;2022-09-17T06:36:06;100405.69;;;10.97;99.22
34931;BME280;21134;49.646;8.560;2022-09-17T06:38:35;100411.59;;;11.10;98.54
34931;BME280;21134;49.646;8.560;2022-09-17T06:41:02;100416.69;;;11.21;96.92
34931;BME280;21134;49.646;8.560;2022-09-17T06:43:29;100418.34;;;11.31;96.27
34931;BME280;21134;49.646;8.560;2022-09-17T06:45:58;100420.84;;;11.38;97.97
34931;BME280;21134;49.646;8.560;2022-09-17T06:48:26;100431.97;;;11.40;95.74
34931;BME280;21134;49.646;8.560;2022-09-17T06:50:53;100426.88;;;11.34;97.04
34931;BME280;21134;49.646;8.560;2022-09-17T06:53:20;100422.59;;;11.36;96.70
34931;BME280;21134;49.646;8.560;2022-09-17T06:55:47;100415.75;;;11.40;96.24
34931;BME280;21134;49.646;8.560;2022-09-17T06:58:14;100419.13;;;11.44;96.72
34931;BME280;21134;49.646;8.560;2022-09-17T07:00:41;100418.22;;;11.51;97.55
34931;BME280;21134;49.646;8.560;2022-09-17T07:03:08;100403.69;;;11.56;97.56
34931;BME280;21134;49.646;8.560;2022-09-17T07:05:35;100406.22;;;11.59;97.12
34931;BME280;21134;49.646;8.560;2022-09-17T07:08:02;100406.22;;;11.57;97.25
34931;BME280;21134;49.646;8.560;2022-09-17T07:10:30;100400.22;;;11.63;96.46
34931;BME280;21134;49.646;8.560;2022-09-17T07:12:56;100407.84;;;11.68;95.76
34931;BME280;21134;49.646;8.560;2022-09-17T07:15:23;100405.25;;;11.75;95.62
34931;BME280;21134;49.646;8.560;2022-09-17T07:17:50;100406.06;;;11.85;95.98
34931;BME280;21134;49.646;8.560;2022-09-17T07:20:18;100408.59;;;11.83;96.31
34931;BME280;21134;49.646;8.560;2022-09-17T07:22:44;100414.59;;;11.89;96.78
34931;BME280;21134;49.646;8.560;2022-09-17T07:25:11;100412.84;;;11.92;96.39
34931;BME280;21134;49.646;8.560;2022-09-17T07:27:37;100415.38;;;11.98;95.84
34931;BME280;21134;49.646;8.560;2022-09-17T07:30:05;100420.38;;;12.12;94.31
34931;BME280;21134;49.646;8.560;2022-09-17T07:32:32;100415.13;;;12.24;92.79
34931;BME280;21134;49.646;8.560;2022-09-17T07:34:58;100426.13;;;12.42;92.25
34931;BME280;21134;49.646;8.560;2022-09-17T07:37:26;100425.13;;;12.53;89.27
34931;BME280;21134;49.646;8.560;2022-09-17T07:39:52;100426.63;;;12.74;88.35
34931;BME280;21134;49.646;8.560;2022-09-17T07:42:19;100422.19;;;12.87;87.54
34931;BME280;21134;49.646;8.560;2022-09-17T07:44:45;100423.69;;;13.08;84.44
34931;BME280;21134;49.646;8.560;2022-09-17T07:47:12;100426.34;;;12.97;87.13
34931;BME280;21134;49.646;8.560;2022-09-17T07:49:38;100431.53;;;12.94;85.71
34931;BME280;21134;49.646;8.560;2022-09-17T07:52:05;100437.56;;;12.89;85.92
34931;BME280;21134;49.646;8.560;2022-09-17T07:54:34;100435.81;;;12.94;87.11
34931;BME280;21134;49.646;8.560;2022-09-17T07:57:01;100428.88;;;13.00;87.61
34931;BME280;21134;49.646;8.560;2022-09-17T07:59:28;100435.66;;;13.08;87.94
34931;BME280;21134;49.646;8.560;2022-09-17T08:01:54;100432.16;;;13.15;86.20
34931;BME280;21134;49.646;8.560;2022-09-17T08:04:21;100432.13;;;13.18;85.66
34931;BME280;21134;49.646;8.560;2022-09-17T08:06:48;100423.53;;;13.19;86.39
34931;BME280;21134;49.646;8.560;2022-09-17T08:09:15;100420.91;;;13.25;85.73
34931;BME280;21134;49.646;8.560;2022-09-17T08:11:44;100423.38;;;13.33;85.88
34931;BME280;21134;49.646;8.560;2022-09-17T08:14:12;100426.72;;;13.39;83.53
34931;BME280;21134;49.646;8.560;2022-09-17T08:16:39;100425.91;;;13.36;85.13
34931;BME280;21134;49.646;8.560;2022-09-17T08:19:06;100425.91;;;13.37;84.36
34931;BME280;21134;49.646;8.560;2022-09-17T08:21:35;100424.09;;;13.44;84.43
34931;BME280;21134;49.646;8.560;2022-09-17T08:24:01;100424.06;;;13.47;84.35
34931;BME280;21134;49.646;8.560;2022-09-17T08:26:28;100413.47;;;13.67;82.78
34931;BME280;21134;49.646;8.560;2022-09-17T08:28:56;100420.59;;;14.04;83.57
34931;BME280;21134;49.646;8.560;2022-09-17T08:31:24;100422.03;;;14.22;80.05
34931;BME280;21134;49.646;8.560;2022-09-17T08:33:52;100416.81;;;14.25;77.67
34931;BME280;21134;49.646;8.560;2022-09-17T08:36:19;100420.97;;;14.32;77.08
34931;BME280;21134;49.646;8.560;2022-09-17T08:38:47;100420.19;;;14.28;75.51
34931;BME280;21134;49.646;8.560;2022-09-17T08:41:20;100415.19;;;14.19;73.92
34931;BME280;21134;49.646;8.560;2022-09-17T08:43:53;100426.72;;;13.96;76.05
34931;BME280;21134;49.646;8.560;2022-09-17T08:46:25;100436.13;;;13.99;76.75
34931;BME280;21134;49.646;8.560;2022-09-17T08:48:55;100428.94;;;14.18;74.89
34931;BME280;21134;49.646;8.560;2022-09-17T08:51:33;100428.84;;;14.24;75.92
34931;BME280;21134;49.646;8.560;2022-09-17T08:54:09;100438.66;;;14.53;75.21
34931;BME280;21134;49.646;8.560;2022-09-17T08:56:44;100435.47;;;14.87;70.86
34931;BME280;21134;49.646;8.560;2022-09-17T08:59:21;100434.78;;;14.77;72.01
34931;BME280;21134;49.646;8.560;2022-09-17T09:01:57;100430.78;;;14.62;74.10
34931;BME280;21134;49.646;8.560;2022-09-17T09:04:44;100431.00;;;14.47;72.14
34931;BME280;21134;49.646;8.560;2022-09-17T09:07:17;100429.25;;;14.51;71.42
34931;BME280;21134;49.646;8.560;2022-09-17T09:09:47;100423.00;;;14.65;70.64
34931;BME280;21134;49.646;8.560;2022-09-17T09:12:21;100422.31;;;14.99;68.76
34931;BME280;21134;49.646;8.560;2022-09-17T09:14:53;100422.78;;;15.18;70.31
34931;BME280;21134;49.646;8.560;2022-09-17T09:17:28;100416.47;;;15.31;69.51
34931;BME280;21134;49.646;8.560;2022-09-17T09:19:57;100417.34;;;15.32;68.27
34931;BME280;21134;49.646;8.560;2022-09-17T09:22:34;100423.19;;;14.98;68.58
34931;BME280;21134;49.646;8.560;2022-09-17T09:25:12;100427.16;;;15.15;68.33
34931;BME280;21134;49.646;8.560;2022-09-17T09:27:46;100423.31;;;15.34;68.33
34931;BME280;21134;49.646;8.560;2022-09-17T09:30:15;100422.25;;;15.43;65.74
34931;BME280;21134;49.646;8.560;2022-09-17T09:32:56;100427.09;;;15.56;64.15
34931;BME280;21134;49.646;8.560;2022-09-17T09:35:25;100430.13;;;15.77;65.59
34931;BME280;21134;49.646;8.560;2022-09-17T09:37:56;100416.75;;;15.97;62.12
34931;BME280;21134;49.646;8.560;2022-09-17T09:40:34;100431.22;;;16.02;62.71
34931;BME280;21134;49.646;8.560;2022-09-17T09:43:08;100423.00;;;15.87;62.96
34931;BME280;21134;49.646;8.560;2022-09-17T09:45:45;100426.00;;;15.68;63.14
34931;BME280;21134;49.646;8.560;2022-09-17T09:48:21;100430.63;;;15.54;61.87
34931;BME280;21134;49.646;8.560;2022-09-17T09:51:03;100436.72;;;15.50;62.58
34931;BME280;21134;49.646;8.560;2022-09-17T09:53:44;100450.94;;;15.29;65.52
34931;BME280;21134;49.646;8.560;2022-09-17T09:56:31;100450.41;;;15.11;68.33
34931;BME280;21134;49.646;8.560;2022-09-17T09:59:05;100434.69;;;14.82;70.93
34931;BME280;21134;49.646;8.560;2022-09-17T10:01:33;100439.38;;;14.61;72.73
34931;BME280;21134;49.646;8.560;2022-09-17T10:04:15;100436.75;;;14.64;74.12
34931;BME280;21134;49.646;8.560;2022-09-17T10:06:41;100435.41;;;14.90;72.01
34931;BME280;21134;49.646;8.560;2022-09-17T10:09:10;100433.19;;;15.14;70.02
34931;BME280;21134;49.646;8.560;2022-09-17T10:11:37;100423.59;;;15.20;71.31
34931;BME280;21134;49.646;8.560;2022-09-17T10:14:18;100427.84;;;15.23;71.08
34931;BME280;21134;49.646;8.560;2022-09-17T10:16:46;100430.31;;;15.29;71.74
34931;BME280;21134;49.646;8.560;2022-09-17T10:19:18;100431.63;;;15.47;69.50
34931;BME280;21134;49.646;8.560;2022-09-17T10:21:49;100427.63;;;15.72;70.06
34931;BME280;21134;49.646;8.560;2022-09-17T10:24:21;100418.81;;;15.83;68.69
34931;BME280;21134;49.646;8.560;2022-09-17T10:26:50;100410.81;;;15.93;67.93
34931;BME280;21134;49.646;8.560;2022-09-17T10:29:18;100420.53;;;15.82;67.41
34931;BME280;21134;49.646;8.560;2022-09-17T10:31:46;100429.50;;;15.67;67.06
34931;BME280;21134;49.646;8.560;2022-09-17T10:34:19;100425.72;;;15.42;66.54
34931;BME280;21134;49.646;8.560;2022-09-17T10:36:46;100435.72;;;15.15;67.10
34931;BME280;21134;49.646;8.560;2022-09-17T10:39:30;100437.22;;;14.85;71.58
34931;BME280;21134;49.646;8.560;2022-09-17T10:41:59;100436.28;;;14.41;73.98
34931;BME280;21134;49.646;8.560;2022-09-17T10:44:28;100445.78;;;13.83;76.76
34931;BME280;21134;49.646;8.560;2022-09-17T10:47:01;100443.22;;;13.85;75.11
34931;BME280;21134;49.646;8.560;2022-09-17T10:49:35;100446.13;;;13.60;76.79
34931;BME280;21134;49.646;8.560;2022-09-17T10:52:10;100452.25;;;13.53;79.21
34931;BME280;21134;49.646;8.560;2022-09-17T10:54:58;100455.59;;;13.58;79.14
34931;BME280;21134;49.646;8.560;2022-09-17T10:57:40;100448.47;;;13.77;79.47
34931;BME280;21134;49.646;8.560;2022-09-17T11:00:12;100446.59;;;13.87;79.59
34931;BME280;21134;49.646;8.560;2022-09-17T11:03:03;100446.34;;;14.02;78.53
34931;BME280;21134;49.646;8.560;2022-09-17T11:05:44;100438.59;;;14.05;78.99
34931;BME280;21134;49.646;8.560;2022-09-17T11:08:22;100439.91;;;14.29;76.79
34931;BME280;21134;49.646;8.560;2022-09-17T11:10:57;100439.56;;;14.49;76.58
34931;BME280;21134;49.646;8.560;2022-09-17T11:13:33;100441.13;;;14.58;75.06
34931;BME280;21134;49.646;8.560;2022-09-17T11:16:11;100436.81;;;14.60;72.25
34931;BME280;21134;49.646;8.560;2022-09-17T11:18:42;100427.13;;;14.73;72.93
34931;BME280;21134;49.646;8.560;2022-09-17T11:21:39;100426.97;;;14.82;74.34
34931;BME280;21134;49.646;8.560;2022-09-17T11:24:45;100429.19;;;15.00;71.15
34931;BME280;21134;49.646;8.560;2022-09-17T11:27:24;100424.56;;;15.16;70.94
34931;BME280;21134;49.646;8.560;2022-09-17T11:30:03;100423.44;;;15.28;73.30
34931;BME280;21134;49.646;8.560;2022-09-17T11:32:48;100416.19;;;15.45;73.10
34931;BME280;21134;49.646;8.560;2022-09-17T11:35:24;100417.09;;;15.43;69.81
34931;BME280;21134;49.646;8.560;2022-09-17T11:37:57;100409.91;;;15.57;69.06
34931;BME280;21134;49.646;8.560;2022-09-17T11:40:33;100418.28;;;15.68;68.92
34931;BME280;21134;49.646;8.560;2022-09-17T11:43:08;100407.59;;;15.84;68.65
34931;BME280;21134;49.646;8.560;2022-09-17T11:45:45;100412.47;;;15.96;68.52
34931;BME280;21134;49.646;8.560;2022-09-17T11:48:17;100404.50;;;16.05;68.08
34931;BME280;21134;49.646;8.560;2022-09-17T11:50:49;100399.00;;;16.17;65.43
34931;BME280;21134;49.646;8.560;2022-09-17T11:53:21;100403.19;;;16.23;60.46
34931;BME280;21134;49.646;8.560;2022-09-17T11:55:52;100401.81;;;16.42;61.40
34931;BME280;21134;49.646;8.560;2022-09-17T11:58:41;100396.28;;;16.56;63.14
34931;BME280;21134;49.646;8.560;2022-09-17T12:01:12;100397.59;;;16.71;58.42
34931;BME280;21134;49.646;8.560;2022-09-17T12:03:47;100388.84;;;16.77;57.42
34931;BME280;21134;49.646;8.560;2022-09-17T12:06:20;100394.25;;;16.99;56.53
34931;BME280;21134;49.646;8.560;2022-09-17T12:08:55;100383.00;;;17.01;55.28
34931;BME280;21134;49.646;8.560;2022-09-17T12:11:29;100370.34;;;16.92;53.11
34931;BME280;21134;49.646;8.560;2022-09-17T12:14:02;100376.25;;;16.95;54.16
34931;BME280;21134;49.646;8.560;2022-09-17T12:16:35;100377.94;;;16.96;54.60
34931;BME280;21134;49.646;8.560;2022-09-17T12:19:11;100369.00;;;17.07;52.07
34931;BME280;21134;49.646;8.560;2022-09-17T12:21:43;100368.16;;;17.08;54.21
34931;BME280;21134;49.646;8.560;2022-09-17T12:24:17;100363.00;;;17.34;53.61
34931;BME280;21134;49.646;8.560;2022-09-17T12:27:01;100364.28;;;17.49;54.51
34931;BME280;21134;49.646;8.560;2022-09-17T12:29:42;100364.56;;;17.40;52.77
34931;BME280;21134;49.646;8.560;2022-09-17T12:32:23;100372.47;;;17.07;54.85
34931;BME280;21134;49.646;8.560;2022-09-17T12:35:02;100368.41;;;16.99;54.52
34931;BME280;21134;49.646;8.560;2022-09-17T12:37:38;100365.47;;;17.11;54.76
34931;BME280;21134;49.646;8.560;2022-09-17T12:40:19;100362.59;;;16.92;54.28
34931;BME280;21134;49.646;8.560;2022-09-17T12:43:08;100368.53;;;16.94;54.55
34931;BME280;21134;49.646;8.560;2022-09-17T12:46:02;100358.69;;;16.77;54.97
34931;BME280;21134;49.646;8.560;2022-09-17T12:48:47;100368.13;;;16.78;55.21
34931;BME280;21134;49.646;8.560;2022-09-17T12:51:30;100361.31;;;16.74;56.19
34931;BME280;21134;49.646;8.560;2022-09-17T12:54:09;100350.13;;;16.75;57.73
34931;BME280;21134;49.646;8.560;2022-09-17T12:56:52;100350.59;;;16.89;55.57
34931;BME280;21134;49.646;8.560;2022-09-17T12:59:28;100353.53;;;16.77;57.58
34931;BME280;21134;49.646;8.560;2022-09-17T13:01:58;100340.81;;;16.69;56.46
34931;BME280;21134;49.646;8.560;2022-09-17T13:04:46;100337.72;;;16.57;57.15
34931;BME280;21134;49.646;8.560;2022-09-17T13:07:36;100327.47;;;16.54;58.14
34931;BME280;21134;49.646;8.560;2022-09-17T13:13:21;100331.31;;;16.70;56.97
34931;BME280;21134;49.646;8.560;2022-09-17T13:15:56;100327.31;;;16.58;58.64
34931;BME280;21134;49.646;8.560;2022-09-17T13:18:33;100323.56;;;16.70;56.26
34931;BME280;21134;49.646;8.560;2022-09-17T13:21:05;100323.03;;;17.16;55.30